createdAt,value
2022-10-04T00:00:25.506Z,97313.19
2022-10-04T00:03:00.360Z,97320.19
2022-10-04T00:05:31.718Z,97313.13
2022-10-04T00:08:19.233Z,97316.31
2022-10-04T00:10:47.693Z,97308.59
2022-10-04T00:13:26.189Z,97300.84
2022-10-04T00:15:54.491Z,97299.78
2022-10-04T00:18:30.234Z,97300.16
2022-10-04T00:21:05.265Z,97299.16
2022-10-04T00:23:48.085Z,97294.47
2022-10-04T00:27:09.810Z,97299.69
2022-10-04T00:29:41.952Z,97297.66
2022-10-04T00:32:47.305Z,97292.47
2022-10-04T00:35:51.684Z,97293.41
2022-10-04T00:38:28.397Z,97292.16
2022-10-04T00:41:03.962Z,97294.97
2022-10-04T00:43:39.602Z,97283.00
2022-10-04T00:46:13.248Z,97286.38
2022-10-04T00:48:47.508Z,97280.88
2022-10-04T00:51:26.283Z,97281.31
2022-10-04T00:54:05.577Z,97281.31
2022-10-04T00:56:42.014Z,97280.50
2022-10-04T00:59:33.064Z,97289.06
2022-10-04T01:02:16.323Z,97285.31
2022-10-04T01:04:50.865Z,97281.88
2022-10-04T01:07:28.778Z,97286.97
2022-10-04T01:10:01.776Z,97284.31
2022-10-04T01:12:46.612Z,97281.25
2022-10-04T01:15:23.701Z,97283.63
2022-10-04T01:18:10.218Z,97281.00
2022-10-04T01:20:49.427Z,97282.63
2022-10-04T01:23:42.735Z,97266.22
2022-10-04T01:26:40.369Z,97258.97
2022-10-04T01:29:13.555Z,97255.72
2022-10-04T01:31:45.159Z,97257.34
2022-10-04T01:34:16.600Z,97254.94
2022-10-04T01:36:47.200Z,97263.47
2022-10-04T01:39:19.137Z,97243.72
2022-10-04T01:41:54.701Z,97241.25
2022-10-04T01:44:32.593Z,97244.44
2022-10-04T01:47:06.505Z,97241.31
2022-10-04T01:49:39.497Z,97240.31
2022-10-04T01:52:16.066Z,97233.81
2022-10-04T01:54:49.038Z,97234.16
2022-10-04T01:57:20.717Z,97231.78
2022-10-04T01:59:56.213Z,97222.53
2022-10-04T02:02:34.723Z,97237.03
2022-10-04T02:05:07.907Z,97232.91
2022-10-04T02:07:38.830Z,97227.72
2022-10-04T02:10:13.388Z,97222.66
2022-10-04T02:12:46.099Z,97227.28
2022-10-04T02:15:16.008Z,97230.66
2022-10-04T02:17:45.658Z,97225.03
2022-10-04T02:20:21.482Z,97226.28
2022-10-04T02:22:53.453Z,97226.03
2022-10-04T02:25:24.473Z,97223.78
2022-10-04T02:27:55.583Z,97218.72
2022-10-04T02:30:24.961Z,97214.81
2022-10-04T02:32:58.282Z,97215.84
2022-10-04T02:35:30.646Z,97207.94
2022-10-04T02:38:14.745Z,97205.38
2022-10-04T02:40:51.321Z,97199.78
2022-10-04T02:43:25.314Z,97197.75
2022-10-04T02:46:00.174Z,97195.69
2022-10-04T02:48:38.420Z,97208.91
2022-10-04T02:51:28.431Z,97205.91
2022-10-04T02:54:08.323Z,97204.72
2022-10-04T02:56:38.549Z,97208.13
2022-10-04T02:59:08.667Z,97205.03
2022-10-04T03:01:51.853Z,97202.50
2022-10-04T03:04:24.203Z,97201.06
2022-10-04T03:06:54.244Z,97193.38
2022-10-04T03:09:29.719Z,97198.34
2022-10-04T03:12:00.170Z,97197.69
2022-10-04T03:14:30.009Z,97198.50
2022-10-04T03:17:03.915Z,97182.38
2022-10-04T03:19:35.010Z,97185.31
2022-10-04T03:22:08.112Z,97190.50
2022-10-04T03:24:40.936Z,97198.75
2022-10-04T03:27:17.767Z,97197.50
2022-10-04T03:29:46.320Z,97192.44
2022-10-04T03:32:17.237Z,97189.56
2022-10-04T03:34:54.169Z,97189.19
2022-10-04T03:37:22.702Z,97189.75
2022-10-04T03:39:53.791Z,97183.06
2022-10-04T03:42:26.577Z,97187.25
2022-10-04T03:44:58.183Z,97176.84
2022-10-04T03:47:30.861Z,97178.28
2022-10-04T03:50:04.374Z,97176.31
2022-10-04T03:52:37.859Z,97172.25
2022-10-04T03:55:09.546Z,97173.44
2022-10-04T03:57:39.364Z,97178.50
2022-10-04T04:00:09.123Z,97176.34
2022-10-04T04:02:49.023Z,97173.13
2022-10-04T04:05:24.135Z,97169.84
2022-10-04T04:08:08.288Z,97171.88
2022-10-04T04:10:40.336Z,97180.13
2022-10-04T04:13:24.155Z,97181.75
2022-10-04T04:15:55.241Z,97177.75
2022-10-04T04:18:28.307Z,97174.22
2022-10-04T04:21:00.365Z,97167.13
2022-10-04T04:23:32.814Z,97170.03
2022-10-04T04:26:19.739Z,97171.72
2022-10-04T04:28:52.415Z,97170.09
2022-10-04T04:31:25.271Z,97162.91
2022-10-04T04:33:59.365Z,97165.78
2022-10-04T04:36:29.873Z,97167.00
2022-10-04T04:39:27.452Z,97167.41
2022-10-04T04:41:55.662Z,97163.03
2022-10-04T04:44:25.897Z,97161.22
2022-10-04T04:47:00.674Z,97162.78
2022-10-04T04:49:31.418Z,97154.47
2022-10-04T04:52:00.101Z,97165.16
2022-10-04T04:54:29.214Z,97170.69
2022-10-04T04:56:58.426Z,97176.00
2022-10-04T04:59:29.109Z,97173.72
2022-10-04T05:01:57.407Z,97179.47
2022-10-04T05:04:26.284Z,97184.78
2022-10-04T05:07:04.873Z,97186.81
2022-10-04T05:09:36.220Z,97187.06
2022-10-04T05:12:10.649Z,97193.56
2022-10-04T05:14:46.869Z,97196.00
2022-10-04T05:17:21.390Z,97191.13
2022-10-04T05:19:50.243Z,97193.31
2022-10-04T05:22:23.852Z,97189.25
2022-10-04T05:24:57.856Z,97195.25
2022-10-04T05:27:33.527Z,97193.19
2022-10-04T05:30:09.833Z,97201.31
2022-10-04T05:32:55.133Z,97197.63
2022-10-04T05:35:24.419Z,97199.66
2022-10-04T05:38:02.084Z,97190.06
2022-10-04T05:40:48.089Z,97190.16
2022-10-04T05:43:29.605Z,97195.81
2022-10-04T05:46:25.262Z,97203.25
2022-10-04T05:48:57.155Z,97202.63
2022-10-04T05:51:29.209Z,97207.72
2022-10-04T05:54:01.300Z,97200.44
2022-10-04T05:57:09.594Z,97201.94
2022-10-04T06:00:04.192Z,97205.22
2022-10-04T06:03:29.760Z,97200.56
2022-10-04T06:06:05.626Z,97199.13
2022-10-04T06:08:51.644Z,97205.16
2022-10-04T06:11:34.856Z,97205.31
2022-10-04T06:14:54.876Z,97200.97
2022-10-04T06:18:08.932Z,97200.38
2022-10-04T06:21:25.164Z,97207.06
2022-10-04T06:24:00.476Z,97208.78
2022-10-04T06:26:36.339Z,97206.75
2022-10-04T06:29:11.274Z,97203.56
2022-10-04T06:32:20.475Z,97203.16
2022-10-04T06:35:35.087Z,97212.53
2022-10-04T06:38:35.228Z,97197.03
2022-10-04T06:41:22.049Z,97200.94
2022-10-04T06:44:14.075Z,97203.00
2022-10-04T06:46:48.996Z,97195.34
2022-10-04T06:49:35.922Z,97202.28
2022-10-04T06:52:43.094Z,97202.28
2022-10-04T06:55:50.386Z,97194.16
2022-10-04T06:59:03.026Z,97198.47
2022-10-04T07:01:32.994Z,97202.94
2022-10-04T07:04:18.815Z,97192.84
2022-10-04T07:06:53.755Z,97201.56
2022-10-04T07:09:28.045Z,97193.09
2022-10-04T07:12:08.460Z,97192.28
2022-10-04T07:14:44.340Z,97201.22
2022-10-04T07:17:19.886Z,97206.81
2022-10-04T07:19:50.739Z,97199.72
2022-10-04T07:22:28.392Z,97204.59
2022-10-04T07:25:15.578Z,97197.59
2022-10-04T07:28:14.831Z,97204.47
2022-10-04T07:30:49.118Z,97214.25
2022-10-04T07:33:24.195Z,97222.91
2022-10-04T07:36:01.911Z,97227.22
2022-10-04T07:38:33.054Z,97230.28
2022-10-04T07:41:11.903Z,97231.13
2022-10-04T07:43:51.449Z,97228.31
2022-10-04T07:46:44.288Z,97236.44
2022-10-04T07:49:17.234Z,97242.75
2022-10-04T07:52:13.489Z,97247.38
2022-10-04T07:54:48.437Z,97249.84
2022-10-04T07:57:29.919Z,97254.72
2022-10-04T08:00:05.677Z,97247.03
2022-10-04T08:02:58.865Z,97230.47
2022-10-04T08:05:35.935Z,97241.41
2022-10-04T08:08:40.330Z,97234.53
2022-10-04T08:11:24.087Z,97230.50
2022-10-04T08:14:05.945Z,97238.25
2022-10-04T08:16:38.589Z,97230.59
2022-10-04T08:19:28.361Z,97221.88
2022-10-04T08:22:03.653Z,97225.53
2022-10-04T08:24:40.430Z,97216.22
2022-10-04T08:27:38.048Z,97214.03
2022-10-04T08:30:13.701Z,97222.19
2022-10-04T08:33:07.103Z,97218.13
2022-10-04T08:35:38.171Z,97225.66
2022-10-04T08:38:24.738Z,97207.56
2022-10-04T08:41:56.649Z,97206.78
2022-10-04T08:45:12.165Z,97212.47
2022-10-04T08:48:33.550Z,97218.34
2022-10-04T08:51:55.100Z,97234.38
2022-10-04T08:55:04.499Z,97227.47
2022-10-04T08:58:06.244Z,97226.63
2022-10-04T09:01:03.990Z,97229.81
2022-10-04T09:04:41.518Z,97231.06
2022-10-04T09:08:23.885Z,97227.56
2022-10-04T09:11:10.453Z,97231.00
2022-10-04T09:13:50.138Z,97242.13
2022-10-04T09:16:20.325Z,97236.19
2022-10-04T09:19:02.312Z,97224.28
2022-10-04T09:21:51.823Z,97227.03
2022-10-04T09:25:01.952Z,97236.19
2022-10-04T09:28:24.908Z,97221.69
2022-10-04T09:31:09.312Z,97220.38
2022-10-04T09:34:02.218Z,97214.19
2022-10-04T09:37:18.849Z,97220.22
2022-10-04T09:40:51.824Z,97219.13
2022-10-04T09:44:17.436Z,97221.88
2022-10-04T09:47:19.339Z,97216.59
2022-10-04T09:50:26.491Z,97212.59
2022-10-04T09:53:21.230Z,97210.63
2022-10-04T09:56:30.952Z,97212.97
2022-10-04T09:59:38.596Z,97216.72
2022-10-04T10:03:15.762Z,97212.31
2022-10-04T10:06:03.284Z,97206.63
2022-10-04T10:08:45.163Z,97210.66
2022-10-04T10:11:42.234Z,97210.56
2022-10-04T10:14:34.580Z,97211.19
2022-10-04T10:17:14.625Z,97211.09
2022-10-04T10:20:17.319Z,97206.03
2022-10-04T10:23:49.465Z,97213.69
2022-10-04T10:27:03.844Z,97205.88
2022-10-04T10:30:25.995Z,97199.78
2022-10-04T10:33:42.547Z,97201.19
2022-10-04T10:36:36.435Z,97194.88
2022-10-04T10:39:38.881Z,97208.56
2022-10-04T10:42:28.944Z,97202.78
2022-10-04T10:45:19.772Z,97210.44
2022-10-04T10:48:01.590Z,97208.13
2022-10-04T10:51:03.687Z,97206.13
2022-10-04T10:54:21.310Z,97195.13
2022-10-04T10:57:01.014Z,97199.41
2022-10-04T11:00:20.053Z,97194.53
2022-10-04T11:03:32.790Z,97191.16
2022-10-04T11:06:51.534Z,97188.06
2022-10-04T11:09:48.480Z,97185.72
2022-10-04T11:12:56.824Z,97187.09
2022-10-04T11:16:16.311Z,97194.38
2022-10-04T11:19:23.457Z,97189.84
2022-10-04T11:22:32.711Z,97182.16
2022-10-04T11:25:54.638Z,97174.28
2022-10-04T11:28:37.698Z,97184.66
2022-10-04T11:31:45.484Z,97182.00
2022-10-04T11:34:51.745Z,97170.88
2022-10-04T11:37:32.405Z,97166.69
2022-10-04T11:40:23.112Z,97163.88
2022-10-04T11:43:18.288Z,97161.28
2022-10-04T11:46:12.432Z,97155.72
2022-10-04T11:49:02.486Z,97151.53
2022-10-04T11:52:02.568Z,97139.88
2022-10-04T11:55:20.443Z,97147.03
2022-10-04T11:57:55.565Z,97148.75
2022-10-04T12:00:25.555Z,97138.63
2022-10-04T12:03:34.780Z,97140.25
2022-10-04T12:06:27.360Z,97140.91
2022-10-04T12:09:13.765Z,97139.53
2022-10-04T12:12:29.233Z,97136.94
2022-10-04T12:15:39.446Z,97128.63
2022-10-04T12:18:41.926Z,97137.22
2022-10-04T12:21:41.524Z,97130.13
2022-10-04T12:24:59.450Z,97121.81
2022-10-04T12:27:53.794Z,97128.25
2022-10-04T12:30:36.726Z,97125.41
2022-10-04T12:33:17.047Z,97126.53
2022-10-04T12:36:03.686Z,97129.94
2022-10-04T12:39:05.216Z,97120.91
2022-10-04T12:41:47.189Z,97124.34
2022-10-04T12:44:35.076Z,97128.66
2022-10-04T12:47:48.175Z,97117.91
2022-10-04T12:50:28.659Z,97112.16
2022-10-04T12:53:10.894Z,97108.81
2022-10-04T12:56:10.263Z,97106.22
2022-10-04T12:59:01.556Z,97115.06
2022-10-04T13:01:43.264Z,97105.13
2022-10-04T13:04:29.192Z,97104.34
2022-10-04T13:07:26.532Z,97098.97
2022-10-04T13:10:25.875Z,97110.34
2022-10-04T13:13:36.083Z,97104.78
2022-10-04T13:19:17.560Z,97101.06
2022-10-04T13:22:51.283Z,97120.06
2022-10-04T13:25:52.147Z,97110.94
2022-10-04T13:28:31.863Z,97112.06
2022-10-04T13:31:07.383Z,97110.50
2022-10-04T13:33:47.048Z,97112.84
2022-10-04T13:36:21.424Z,97116.28
2022-10-04T13:39:33.419Z,97114.09
2022-10-04T13:42:26.700Z,97102.13
2022-10-04T13:45:17.730Z,97103.59
2022-10-04T13:48:09.255Z,97100.13
2022-10-04T13:50:58.839Z,97100.13
2022-10-04T13:53:59.714Z,97104.44
2022-10-04T13:56:59.378Z,97104.66
2022-10-04T13:59:41.906Z,97105.16
2022-10-04T14:03:00.326Z,97098.03
2022-10-04T14:06:22.497Z,97097.63
2022-10-04T14:09:26.858Z,97096.28
2022-10-04T14:12:48.829Z,97085.38
2022-10-04T14:16:02.439Z,97096.56
2022-10-04T14:19:24.724Z,97089.41
2022-10-04T14:22:26.699Z,97086.50
2022-10-04T14:25:46.931Z,97084.94
2022-10-04T14:28:44.437Z,97084.22
2022-10-04T14:31:38.197Z,97083.38
2022-10-04T14:34:40.938Z,97088.44
2022-10-04T14:37:39.614Z,97078.53
2022-10-04T14:40:45.621Z,97072.81
2022-10-04T14:43:49.214Z,97069.63
2022-10-04T14:46:24.802Z,97072.78
2022-10-04T14:49:11.533Z,97077.63
2022-10-04T14:52:08.286Z,97076.25
2022-10-04T14:54:52.381Z,97076.25
2022-10-04T14:57:40.099Z,97081.41
2022-10-04T15:00:18.730Z,97075.81
2022-10-04T15:03:14.443Z,97072.97
2022-10-04T15:06:21.285Z,97069.47
2022-10-04T15:09:12.172Z,97061.50
2022-10-04T15:12:02.370Z,97061.50
2022-10-04T15:14:42.173Z,97059.34
2022-10-04T15:17:25.806Z,97060.13
2022-10-04T15:20:20.029Z,97057.66
2022-10-04T15:22:53.998Z,97057.66
2022-10-04T15:25:42.514Z,97060.75
2022-10-04T15:28:46.565Z,97058.19
2022-10-04T15:31:23.578Z,97063.19
2022-10-04T15:34:05.897Z,97054.66
2022-10-04T15:37:04.804Z,97057.75
2022-10-04T15:40:01.827Z,97057.16
2022-10-04T15:42:35.560Z,97054.19
2022-10-04T15:45:48.733Z,97059.13
2022-10-04T15:48:38.444Z,97054.28
2022-10-04T15:51:16.642Z,97058.34
2022-10-04T15:54:06.196Z,97058.00
2022-10-04T15:56:50.956Z,97057.09
2022-10-04T15:59:53.422Z,97052.75
2022-10-04T16:02:53.353Z,97058.97
2022-10-04T16:05:39.409Z,97052.00
2022-10-04T16:08:35.603Z,97047.91
2022-10-04T16:11:35.234Z,97049.75
2022-10-04T16:14:26.391Z,97041.13
2022-10-04T16:17:31.995Z,97037.59
2022-10-04T16:20:52.416Z,97039.66
2022-10-04T16:23:33.358Z,97031.44
2022-10-04T16:26:04.860Z,97038.88
2022-10-04T16:29:15.993Z,97037.25
2022-10-04T16:32:03.189Z,97033.22
2022-10-04T16:34:58.213Z,97037.16
2022-10-04T16:37:38.492Z,97038.22
2022-10-04T16:40:33.450Z,97038.69
2022-10-04T16:43:07.558Z,97034.91
2022-10-04T16:46:04.941Z,97044.66
2022-10-04T16:48:50.011Z,97049.09
2022-10-04T16:52:03.354Z,97054.97
2022-10-04T16:55:26.142Z,97050.84
2022-10-04T16:58:52.571Z,97062.00
2022-10-04T17:02:17.218Z,97068.16
2022-10-04T17:05:19.237Z,97066.91
2022-10-04T17:08:21.352Z,97073.97
2022-10-04T17:11:38.661Z,97078.28
2022-10-04T17:14:46.333Z,97068.03
2022-10-04T17:17:24.664Z,97057.06
2022-10-04T17:20:03.314Z,97063.22
2022-10-04T17:22:57.840Z,97065.69
2022-10-04T17:25:34.344Z,97073.75
2022-10-04T17:28:21.413Z,97065.22
2022-10-04T17:31:00.051Z,97059.34
2022-10-04T17:33:39.003Z,97052.88
2022-10-04T17:36:39.667Z,97051.94
2022-10-04T17:39:27.459Z,97042.22
2022-10-04T17:42:10.634Z,97038.88
2022-10-04T17:45:02.605Z,97035.06
2022-10-04T17:47:51.464Z,97033.13
2022-10-04T17:50:46.044Z,97025.63
2022-10-04T17:53:39.160Z,97022.59
2022-10-04T17:56:11.638Z,97040.00
2022-10-04T17:58:45.600Z,97041.28
2022-10-04T18:01:19.256Z,97040.72
2022-10-04T18:03:54.759Z,97036.47
2022-10-04T18:06:34.300Z,97029.75
2022-10-04T18:09:11.699Z,97029.63
2022-10-04T18:11:47.185Z,97033.22
2022-10-04T18:14:46.533Z,97032.63
2022-10-04T18:17:32.906Z,97035.97
2022-10-04T18:20:27.744Z,97040.47
2022-10-04T18:23:02.319Z,97034.09
2022-10-04T18:25:33.994Z,97037.09
2022-10-04T18:28:12.571Z,97040.66
2022-10-04T18:30:59.057Z,97041.91
2022-10-04T18:33:47.117Z,97051.00
2022-10-04T18:36:18.529Z,97055.56
2022-10-04T18:39:01.673Z,97061.84
2022-10-04T18:41:46.013Z,97062.06
2022-10-04T18:44:17.370Z,97062.06
2022-10-04T18:46:51.231Z,97066.09
2022-10-04T18:49:24.656Z,97066.75
2022-10-04T18:52:04.652Z,97065.59
2022-10-04T18:54:48.391Z,97067.41
2022-10-04T18:57:33.420Z,97064.19
2022-10-04T19:00:28.279Z,97071.94
2022-10-04T19:03:06.063Z,97067.75
2022-10-04T19:05:44.277Z,97067.38
2022-10-04T19:08:31.771Z,97068.28
2022-10-04T19:11:06.246Z,97078.31
2022-10-04T19:13:44.953Z,97072.06
2022-10-04T19:16:23.608Z,97079.41
2022-10-04T19:19:07.302Z,97079.19
2022-10-04T19:21:48.175Z,97081.25
2022-10-04T19:24:46.038Z,97078.22
2022-10-04T19:27:27.077Z,97085.22
2022-10-04T19:30:16.192Z,97085.09
2022-10-04T19:33:00.441Z,97086.00
2022-10-04T19:35:50.855Z,97089.66
2022-10-04T19:38:44.672Z,97094.81
2022-10-04T19:41:21.708Z,97091.81
2022-10-04T19:44:00.196Z,97097.69
2022-10-04T19:46:41.640Z,97104.31
2022-10-04T19:49:21.470Z,97104.16
2022-10-04T19:51:55.785Z,97108.84
2022-10-04T19:54:32.329Z,97107.91
2022-10-04T19:57:04.239Z,97111.66
2022-10-04T19:59:41.076Z,97120.84
2022-10-04T20:02:11.939Z,97119.94
2022-10-04T20:04:42.188Z,97121.97
2022-10-04T20:07:23.388Z,97122.31
2022-10-04T20:09:55.527Z,97131.59
2022-10-04T20:12:35.644Z,97136.22
2022-10-04T20:19:39.694Z,97130.69
2022-10-04T20:22:31.862Z,97141.28
2022-10-04T20:25:00.761Z,97141.47
2022-10-04T20:28:03.460Z,97149.06
2022-10-04T20:30:52.776Z,97145.41
2022-10-04T20:33:51.334Z,97149.88
2022-10-04T20:36:52.876Z,97151.50
2022-10-04T20:40:00.717Z,97164.94
2022-10-04T20:42:38.946Z,97160.88
2022-10-04T20:45:27.636Z,97160.88
2022-10-04T20:47:58.113Z,97169.41
2022-10-04T20:50:40.685Z,97164.13
2022-10-04T20:53:19.713Z,97168.25
2022-10-04T20:55:49.581Z,97170.78
2022-10-04T20:58:32.486Z,97171.22
2022-10-04T21:01:16.138Z,97182.28
2022-10-04T21:03:44.246Z,97178.59
2022-10-04T21:06:12.898Z,97183.84
2022-10-04T21:08:42.486Z,97185.44
2022-10-04T21:11:23.021Z,97182.00
2022-10-04T21:13:58.351Z,97183.06
2022-10-04T21:16:46.097Z,97190.78
2022-10-04T21:19:45.050Z,97182.69
2022-10-04T21:22:40.498Z,97188.41
2022-10-04T21:25:33.381Z,97190.47
2022-10-04T21:28:33.718Z,97177.66
2022-10-04T21:31:03.856Z,97181.75
2022-10-04T21:33:36.608Z,97180.16
2022-10-04T21:36:05.951Z,97170.81
2022-10-04T21:38:34.010Z,97178.00
2022-10-04T21:41:03.599Z,97170.28
2022-10-04T21:43:31.802Z,97179.66
2022-10-04T21:46:00.304Z,97184.69
2022-10-04T21:48:28.466Z,97181.63
2022-10-04T21:50:56.951Z,97191.41
2022-10-04T21:53:25.016Z,97194.00
2022-10-04T21:55:53.018Z,97192.22
2022-10-04T21:58:22.538Z,97193.41
2022-10-04T22:00:50.906Z,97193.63
2022-10-04T22:03:19.169Z,97194.44
2022-10-04T22:05:47.206Z,97193.88
2022-10-04T22:08:15.202Z,97189.00
2022-10-04T22:10:44.025Z,97187.78
2022-10-04T22:13:12.093Z,97181.28
2022-10-04T22:15:41.859Z,97184.75
2022-10-04T22:18:09.918Z,97180.06
2022-10-04T22:20:38.787Z,97175.63
2022-10-04T22:23:15.415Z,97166.50
2022-10-04T22:25:43.506Z,97163.47
2022-10-04T22:28:20.327Z,97158.22
2022-10-04T22:30:50.477Z,97163.50
2022-10-04T22:33:32.038Z,97157.59
2022-10-04T22:36:06.401Z,97143.16
2022-10-04T22:38:34.441Z,97145.22
2022-10-04T22:41:02.713Z,97139.13
2022-10-04T22:43:30.719Z,97145.28
2022-10-04T22:46:00.171Z,97134.13
2022-10-04T22:48:28.955Z,97144.09
2022-10-04T22:50:57.010Z,97138.78
2022-10-04T22:53:25.460Z,97129.44
2022-10-04T22:55:55.868Z,97133.50
2022-10-04T22:58:24.103Z,97125.97
2022-10-04T23:00:52.189Z,97134.72
2022-10-04T23:03:30.729Z,97135.72
2022-10-04T23:05:59.335Z,97137.16
2022-10-04T23:08:27.498Z,97137.78
2022-10-04T23:10:56.427Z,97134.31
2022-10-04T23:13:25.432Z,97135.34
2022-10-04T23:15:56.955Z,97128.41
2022-10-04T23:18:27.633Z,97128.00
2022-10-04T23:21:00.333Z,97133.69
2022-10-04T23:23:31.532Z,97129.22
2022-10-04T23:25:59.620Z,97126.16
2022-10-04T23:28:27.785Z,97118.88
2022-10-04T23:31:07.107Z,97121.25
2022-10-04T23:33:36.556Z,97123.06
2022-10-04T23:36:06.423Z,97122.47
2022-10-04T23:38:34.623Z,97122.03
2022-10-04T23:41:03.083Z,97119.84
2022-10-04T23:43:31.914Z,97115.53
2022-10-04T23:46:00.360Z,97115.53
2022-10-04T23:48:31.918Z,97110.84
2022-10-04T23:51:01.655Z,97101.28
2022-10-04T23:53:33.610Z,97102.75
2022-10-04T23:56:06.021Z,97108.22
2022-10-04T23:58:38.465Z,97111.88
